Nearby METAR Reports

 

K1A5 - Macon/Franklin, North Carolina, USA
Distance from station: WSW 16mi, 25km
Updated: Thu, 08-Dec-2022 8:55pm EST
Rain, Overcast
Rain, Overcast
 Wind from calm
Wind: Calm
Temperature: 59°F , 15°C
Dew Point: 59°F , 15°C
Humidity: 100%
Barometer: 30.18 inHg , 1022 hPa
Summary: Rain
Clouds: Overcast
Visibility: 3 miles , 5 km
Cloud details: Partly cloudy 500 ft
Mostly cloudy 1700 ft
Overcast 5500 ft
2022/12/09 01:55 K1A5 090155Z AUTO 00000KT 3SM RA SCT005 BKN017 OVC055 15/15 A3018 RMK AO2 P0007 T01480145
KAVL - Asheville, North Carolina, USA
Distance from station: ENE 36mi, 59km
Updated: Thu, 08-Dec-2022 8:38pm EST
Light rain, Mist, Overcast
Light rain, Mist, Overcast
 Wind from calm
Wind: Calm
Temperature: 55°F , 13°C
Dew Point: 55°F , 13°C
Humidity: 100%
Barometer: 30.17 inHg , 1021.7 hPa
Summary: Light rain, Mist
Clouds: Overcast
Visibility: 2 1/2 miles , 4 km
Cloud details: Overcast 200 ft
2022/12/09 01:38 KAVL 090138Z 00000KT 2 1/2SM -RA BR OVC002 13/13 A3017 RMK AO2 P0003 T01330133
 
KRHP - Andrews, North Carolina, USA
Distance from station: WSW 40mi, 64km
Updated: Thu, 08-Dec-2022 8:35pm EST
Rain, Overcast
Rain, Overcast
 Wind from calm
Wind: Calm
Temperature: 61°F , 16°C
Dew Point: 61°F , 16°C
Humidity: 100%
Barometer: 30.15 inHg , 1021 hPa
Summary: Rain
Clouds: Overcast
Visibility: 3 miles , 5 km
Cloud details: Mostly cloudy 3300 ft
Mostly cloudy 4800 ft
Overcast 5500 ft
2022/12/09 01:35 KRHP 090135Z AUTO 00000KT 3SM RA BKN033 BKN048 OVC055 16/16 A3015 RMK AO2 P0001 T01610155
KLQK - Pickens, South Carolina, USA
Distance from station: SE 42mi, 68km
Updated: Thu, 08-Dec-2022 8:55pm EST
Overcast
Overcast
 
Temperature: 63°F , 17°C
Dew Point: 63°F , 17°C
Humidity: 100%
Barometer: 30.13 inHg , 1020.3 hPa
Clouds: Overcast
Visibility: 7 miles , 11 km
Cloud details: Overcast 400 ft
2022/12/09 01:55 KLQK 090155Z AUTO 7SM OVC004 17/17 A3013 RMK AO2 T01650165
 
KCEU - Clemson, South Carolina, USA
Distance from station: SSE 46mi, 75km
Updated: Thu, 08-Dec-2022 8:26pm EST
Mist, Overcast
Mist, Overcast
 Wind from NNE
Wind: NNE 3 mph , 6 km/h
Temperature: 63°F , 17°C
Dew Point: 63°F , 17°C
Humidity: 100%
Barometer: 30.13 inHg , 1020.3 hPa
Summary: Mist
Clouds: Overcast
Visibility: 5 miles , 8 km
Cloud details: Overcast 400 ft
2022/12/09 01:26 KCEU 090126Z AUTO 03003KT 5SM BR OVC004 17/17 A3013 RMK AO2 T01670167
KTOC - Toccoa, Georgia, USA
Distance from station: S 49mi, 79km
Updated: Thu, 08-Dec-2022 8:35pm EST
Mist, Overcast
Mist, Overcast
 Wind from calm
Wind: Calm
Temperature: 59°F , 15°C
Dew Point: 59°F , 15°C
Humidity: 100%
Barometer: 30.13 inHg , 1020.3 hPa
Summary: Mist
Clouds: Overcast
Visibility: 1 mile , 2 km
Cloud details: Overcast 700 ft
2022/12/09 01:35 KTOC 090135Z AUTO 00000KT 1SM BR VV007 15/15 A3013 RMK AO2 VIS 1/2V5 T01530151